Batavia, Iowa
Current Conditions -  °F | °C
As of 4:15 PM on Sunday 23 Nov 2014 (Local Time) from KFFL Reporting Station
Overcast Overcast  
Wind Chill: 52°   Ceiling: 600
Heat Index: 52°   Visibility: NA
Dew Point: 52°   Wind: 7mph
Humidity: 100%   Direction: 180°S
Pressure: 29.32"   Gusts: NA
Location:  40.99°N, 92.17°W
Report Text: KFFL 232215Z AUTO 18006KT BKN006 OVC011 11/11 A2932 RMK AO2
Loading
Personal Weather Stations






























Interactive Weather Map New forecast layout! Learn more

10-Day Weather Forecast

Advertisements
Track Severe Weather on mobile